sensor_id;sensor_type;location;lat;lon;timestamp;P1;durP1;ratioP1;P2;durP2;ratioP2
11837;SDS011;5978;51.020;6.764;2023-03-14T00:00:34;4.10;;;1.40;;
11837;SDS011;5978;51.020;6.764;2023-03-14T00:03:00;5.00;;;1.70;;
11837;SDS011;5978;51.020;6.764;2023-03-14T00:05:26;6.80;;;1.77;;
11837;SDS011;5978;51.020;6.764;2023-03-14T00:07:52;4.67;;;2.00;;
11837;SDS011;5978;51.020;6.764;2023-03-14T00:10:18;4.00;;;1.50;;
11837;SDS011;5978;51.020;6.764;2023-03-14T00:12:44;4.67;;;1.77;;
11837;SDS011;5978;51.020;6.764;2023-03-14T00:15:10;5.47;;;2.00;;
11837;SDS011;5978;51.020;6.764;2023-03-14T00:17:36;4.87;;;1.73;;
11837;SDS011;5978;51.020;6.764;2023-03-14T00:20:04;4.20;;;1.87;;
11837;SDS011;5978;51.020;6.764;2023-03-14T00:22:39;7.77;;;1.90;;
11837;SDS011;5978;51.020;6.764;2023-03-14T00:25:06;7.73;;;1.90;;
11837;SDS011;5978;51.020;6.764;2023-03-14T00:27:33;5.53;;;2.33;;
11837;SDS011;5978;51.020;6.764;2023-03-14T00:29:59;3.93;;;1.40;;
11837;SDS011;5978;51.020;6.764;2023-03-14T00:32:26;8.47;;;1.67;;
11837;SDS011;5978;51.020;6.764;2023-03-14T00:34:51;6.10;;;2.20;;
11837;SDS011;5978;51.020;6.764;2023-03-14T00:37:17;7.27;;;1.40;;
11837;SDS011;5978;51.020;6.764;2023-03-14T00:39:43;5.93;;;2.00;;
11837;SDS011;5978;51.020;6.764;2023-03-14T00:42:09;3.33;;;1.70;;
11837;SDS011;5978;51.020;6.764;2023-03-14T00:44:35;2.73;;;1.50;;
11837;SDS011;5978;51.020;6.764;2023-03-14T00:47:00;5.90;;;1.10;;
11837;SDS011;5978;51.020;6.764;2023-03-14T00:49:26;7.40;;;1.80;;
11837;SDS011;5978;51.020;6.764;2023-03-14T00:51:52;6.00;;;1.60;;
11837;SDS011;5978;51.020;6.764;2023-03-14T00:54:18;3.50;;;1.30;;
11837;SDS011;5978;51.020;6.764;2023-03-14T00:56:44;4.93;;;1.07;;
11837;SDS011;5978;51.020;6.764;2023-03-14T00:59:10;3.17;;;1.03;;
11837;SDS011;5978;51.020;6.764;2023-03-14T01:01:36;5.67;;;2.30;;
11837;SDS011;5978;51.020;6.764;2023-03-14T01:04:02;2.10;;;1.63;;
11837;SDS011;5978;51.020;6.764;2023-03-14T01:06:28;7.43;;;2.50;;
11837;SDS011;5978;51.020;6.764;2023-03-14T01:08:55;5.15;;;1.40;;
11837;SDS011;5978;51.020;6.764;2023-03-14T01:11:23;1.45;;;1.02;;
11837;SDS011;5978;51.020;6.764;2023-03-14T01:13:51;7.03;;;1.20;;
11837;SDS011;5978;51.020;6.764;2023-03-14T01:16:18;2.28;;;1.42;;
11837;SDS011;5978;51.020;6.764;2023-03-14T01:18:45;7.00;;;1.45;;
11837;SDS011;5978;51.020;6.764;2023-03-14T01:21:13;8.20;;;2.58;;
11837;SDS011;5978;51.020;6.764;2023-03-14T01:23:39;3.92;;;1.00;;
11837;SDS011;5978;51.020;6.764;2023-03-14T01:26:07;3.97;;;1.50;;
11837;SDS011;5978;51.020;6.764;2023-03-14T01:28:35;9.02;;;1.02;;
11837;SDS011;5978;51.020;6.764;2023-03-14T01:31:05;4.13;;;1.57;;
11837;SDS011;5978;51.020;6.764;2023-03-14T01:33:33;2.63;;;0.82;;
11837;SDS011;5978;51.020;6.764;2023-03-14T01:35:59;6.68;;;1.25;;
11837;SDS011;5978;51.020;6.764;2023-03-14T01:38:28;4.00;;;0.95;;
11837;SDS011;5978;51.020;6.764;2023-03-14T01:40:54;3.85;;;1.23;;
11837;SDS011;5978;51.020;6.764;2023-03-14T01:43:20;3.10;;;1.03;;
11837;SDS011;5978;51.020;6.764;2023-03-14T01:48:44;2.50;;;1.20;;
11837;SDS011;5978;51.020;6.764;2023-03-14T01:54:02;4.18;;;1.00;;
11837;SDS011;5978;51.020;6.764;2023-03-14T01:56:33;2.20;;;1.38;;
11837;SDS011;5978;51.020;6.764;2023-03-14T01:59:00;3.25;;;1.02;;
11837;SDS011;5978;51.020;6.764;2023-03-14T02:01:28;1.42;;;1.08;;
11837;SDS011;5978;51.020;6.764;2023-03-14T02:03:56;5.57;;;1.33;;
11837;SDS011;5978;51.020;6.764;2023-03-14T02:06:27;2.85;;;1.27;;
11837;SDS011;5978;51.020;6.764;2023-03-14T02:08:58;1.85;;;1.15;;
11837;SDS011;5978;51.020;6.764;2023-03-14T02:11:26;4.82;;;1.02;;
11837;SDS011;5978;51.020;6.764;2023-03-14T02:13:55;2.33;;;1.10;;
11837;SDS011;5978;51.020;6.764;2023-03-14T02:16:22;2.90;;;1.50;;
11837;SDS011;5978;51.020;6.764;2023-03-14T02:18:48;7.30;;;1.50;;
11837;SDS011;5978;51.020;6.764;2023-03-14T02:21:19;4.10;;;2.20;;
11837;SDS011;5978;51.020;6.764;2023-03-14T02:26:43;3.85;;;1.30;;
11837;SDS011;5978;51.020;6.764;2023-03-14T02:29:25;2.10;;;1.02;;
11837;SDS011;5978;51.020;6.764;2023-03-14T02:31:52;1.70;;;0.93;;
11837;SDS011;5978;51.020;6.764;2023-03-14T02:34:18;5.23;;;1.30;;
11837;SDS011;5978;51.020;6.764;2023-03-14T02:36:43;1.60;;;1.00;;
11837;SDS011;5978;51.020;6.764;2023-03-14T02:39:15;2.20;;;1.10;;
11837;SDS011;5978;51.020;6.764;2023-03-14T02:41:49;1.33;;;1.00;;
11837;SDS011;5978;51.020;6.764;2023-03-14T02:44:15;6.77;;;1.10;;
11837;SDS011;5978;51.020;6.764;2023-03-14T02:46:40;1.50;;;1.17;;
11837;SDS011;5978;51.020;6.764;2023-03-14T02:49:08;2.47;;;1.05;;
11837;SDS011;5978;51.020;6.764;2023-03-14T02:51:37;3.60;;;1.20;;
11837;SDS011;5978;51.020;6.764;2023-03-14T02:54:05;3.72;;;1.27;;
11837;SDS011;5978;51.020;6.764;2023-03-14T02:56:30;4.13;;;1.20;;
11837;SDS011;5978;51.020;6.764;2023-03-14T02:58:56;2.80;;;2.30;;
11837;SDS011;5978;51.020;6.764;2023-03-14T03:01:23;3.65;;;1.00;;
11837;SDS011;5978;51.020;6.764;2023-03-14T03:03:49;6.82;;;2.00;;
11837;SDS011;5978;51.020;6.764;2023-03-14T03:06:15;5.40;;;1.30;;
11837;SDS011;5978;51.020;6.764;2023-03-14T03:08:41;1.02;;;0.85;;
11837;SDS011;5978;51.020;6.764;2023-03-14T03:11:06;2.17;;;0.90;;
11837;SDS011;5978;51.020;6.764;2023-03-14T03:13:32;5.10;;;1.33;;
11837;SDS011;5978;51.020;6.764;2023-03-14T03:15:59;3.35;;;1.05;;
11837;SDS011;5978;51.020;6.764;2023-03-14T03:18:24;2.43;;;1.23;;
11837;SDS011;5978;51.020;6.764;2023-03-14T03:20:50;6.93;;;1.50;;
11837;SDS011;5978;51.020;6.764;2023-03-14T03:23:16;2.80;;;1.20;;
11837;SDS011;5978;51.020;6.764;2023-03-14T03:25:41;5.07;;;1.20;;
11837;SDS011;5978;51.020;6.764;2023-03-14T03:28:07;13.03;;;1.53;;
11837;SDS011;5978;51.020;6.764;2023-03-14T03:30:39;4.97;;;1.07;;
11837;SDS011;5978;51.020;6.764;2023-03-14T03:33:06;3.78;;;1.40;;
11837;SDS011;5978;51.020;6.764;2023-03-14T03:35:32;4.53;;;1.45;;
11837;SDS011;5978;51.020;6.764;2023-03-14T03:37:58;5.53;;;1.60;;
11837;SDS011;5978;51.020;6.764;2023-03-14T03:40:25;8.50;;;1.83;;
11837;SDS011;5978;51.020;6.764;2023-03-14T03:42:51;1.33;;;1.23;;
11837;SDS011;5978;51.020;6.764;2023-03-14T03:45:16;6.77;;;1.73;;
11837;SDS011;5978;51.020;6.764;2023-03-14T03:47:42;11.53;;;2.33;;
11837;SDS011;5978;51.020;6.764;2023-03-14T03:50:08;4.10;;;1.40;;
11837;SDS011;5978;51.020;6.764;2023-03-14T03:52:34;2.50;;;1.55;;
11837;SDS011;5978;51.020;6.764;2023-03-14T03:55:00;5.43;;;1.50;;
11837;SDS011;5978;51.020;6.764;2023-03-14T03:57:26;9.03;;;1.90;;
11837;SDS011;5978;51.020;6.764;2023-03-14T03:59:51;6.30;;;1.60;;
11837;SDS011;5978;51.020;6.764;2023-03-14T04:02:17;6.40;;;1.70;;
11837;SDS011;5978;51.020;6.764;2023-03-14T04:04:43;5.27;;;1.93;;
11837;SDS011;5978;51.020;6.764;2023-03-14T04:07:09;4.20;;;1.33;;
11837;SDS011;5978;51.020;6.764;2023-03-14T04:09:35;4.72;;;1.48;;
11837;SDS011;5978;51.020;6.764;2023-03-14T04:12:02;4.70;;;1.33;;
11837;SDS011;5978;51.020;6.764;2023-03-14T04:14:28;1.90;;;1.43;;
11837;SDS011;5978;51.020;6.764;2023-03-14T04:16:54;3.73;;;1.37;;
11837;SDS011;5978;51.020;6.764;2023-03-14T04:19:20;1.60;;;1.17;;
11837;SDS011;5978;51.020;6.764;2023-03-14T04:21:46;2.83;;;1.05;;
11837;SDS011;5978;51.020;6.764;2023-03-14T04:24:12;2.23;;;0.80;;
11837;SDS011;5978;51.020;6.764;2023-03-14T04:26:38;4.43;;;1.15;;
11837;SDS011;5978;51.020;6.764;2023-03-14T04:29:04;4.53;;;0.90;;
11837;SDS011;5978;51.020;6.764;2023-03-14T04:31:29;5.40;;;0.60;;
11837;SDS011;5978;51.020;6.764;2023-03-14T04:33:55;1.13;;;0.80;;
11837;SDS011;5978;51.020;6.764;2023-03-14T04:36:20;3.30;;;1.03;;
11837;SDS011;5978;51.020;6.764;2023-03-14T04:38:46;5.13;;;1.00;;
11837;SDS011;5978;51.020;6.764;2023-03-14T04:41:12;7.90;;;1.20;;
11837;SDS011;5978;51.020;6.764;2023-03-14T04:43:38;1.20;;;0.90;;
11837;SDS011;5978;51.020;6.764;2023-03-14T04:46:04;4.27;;;0.97;;
11837;SDS011;5978;51.020;6.764;2023-03-14T04:48:29;1.80;;;0.70;;
11837;SDS011;5978;51.020;6.764;2023-03-14T04:50:55;2.40;;;1.00;;
11837;SDS011;5978;51.020;6.764;2023-03-14T04:53:21;1.53;;;0.70;;
11837;SDS011;5978;51.020;6.764;2023-03-14T04:55:53;1.60;;;0.70;;
11837;SDS011;5978;51.020;6.764;2023-03-14T04:58:20;4.65;;;0.90;;
11837;SDS011;5978;51.020;6.764;2023-03-14T05:00:47;0.80;;;0.70;;
11837;SDS011;5978;51.020;6.764;2023-03-14T05:03:16;1.10;;;0.70;;
11837;SDS011;5978;51.020;6.764;2023-03-14T05:05:43;1.90;;;0.70;;
11837;SDS011;5978;51.020;6.764;2023-03-14T05:08:09;2.15;;;0.85;;
11837;SDS011;5978;51.020;6.764;2023-03-14T05:10:35;0.73;;;0.50;;
11837;SDS011;5978;51.020;6.764;2023-03-14T05:13:01;0.70;;;0.60;;
11837;SDS011;5978;51.020;6.764;2023-03-14T05:15:26;0.70;;;0.60;;
11837;SDS011;5978;51.020;6.764;2023-03-14T05:17:52;2.90;;;0.90;;
11837;SDS011;5978;51.020;6.764;2023-03-14T05:20:19;1.40;;;0.68;;
11837;SDS011;5978;51.020;6.764;2023-03-14T05:22:45;1.30;;;0.70;;
11837;SDS011;5978;51.020;6.764;2023-03-14T05:25:11;0.80;;;0.60;;
11837;SDS011;5978;51.020;6.764;2023-03-14T05:27:37;1.03;;;0.60;;
11837;SDS011;5978;51.020;6.764;2023-03-14T05:30:03;0.80;;;0.60;;
11837;SDS011;5978;51.020;6.764;2023-03-14T05:32:30;1.15;;;1.00;;
11837;SDS011;5978;51.020;6.764;2023-03-14T05:34:56;0.70;;;0.50;;
11837;SDS011;5978;51.020;6.764;2023-03-14T05:37:24;0.80;;;0.60;;
11837;SDS011;5978;51.020;6.764;2023-03-14T05:39:51;0.80;;;0.52;;
11837;SDS011;5978;51.020;6.764;2023-03-14T05:42:16;0.70;;;0.50;;
11837;SDS011;5978;51.020;6.764;2023-03-14T05:44:42;0.90;;;0.70;;
11837;SDS011;5978;51.020;6.764;2023-03-14T05:47:08;1.40;;;0.60;;
11837;SDS011;5978;51.020;6.764;2023-03-14T05:49:33;1.40;;;0.70;;
11837;SDS011;5978;51.020;6.764;2023-03-14T05:51:59;0.80;;;0.60;;
11837;SDS011;5978;51.020;6.764;2023-03-14T05:54:25;0.90;;;0.60;;
11837;SDS011;5978;51.020;6.764;2023-03-14T05:56:51;1.00;;;0.60;;
11837;SDS011;5978;51.020;6.764;2023-03-14T05:59:16;1.30;;;0.57;;
11837;SDS011;5978;51.020;6.764;2023-03-14T06:01:42;0.70;;;0.60;;
11837;SDS011;5978;51.020;6.764;2023-03-14T06:04:07;0.70;;;0.50;;
11837;SDS011;5978;51.020;6.764;2023-03-14T06:06:33;0.70;;;0.60;;
11837;SDS011;5978;51.020;6.764;2023-03-14T06:08:59;0.80;;;0.50;;
11837;SDS011;5978;51.020;6.764;2023-03-14T06:11:25;1.07;;;0.50;;
11837;SDS011;5978;51.020;6.764;2023-03-14T06:13:50;0.90;;;0.57;;
11837;SDS011;5978;51.020;6.764;2023-03-14T06:16:16;4.60;;;0.60;;
11837;SDS011;5978;51.020;6.764;2023-03-14T06:18:42;0.83;;;0.50;;
11837;SDS011;5978;51.020;6.764;2023-03-14T06:21:08;2.13;;;0.60;;
11837;SDS011;5978;51.020;6.764;2023-03-14T06:23:34;0.80;;;0.60;;
11837;SDS011;5978;51.020;6.764;2023-03-14T06:25:59;1.63;;;0.60;;
11837;SDS011;5978;51.020;6.764;2023-03-14T06:28:26;1.00;;;0.60;;
11837;SDS011;5978;51.020;6.764;2023-03-14T06:30:51;1.23;;;0.60;;
11837;SDS011;5978;51.020;6.764;2023-03-14T06:33:17;0.90;;;0.70;;
11837;SDS011;5978;51.020;6.764;2023-03-14T06:35:43;6.93;;;0.60;;
11837;SDS011;5978;51.020;6.764;2023-03-14T06:38:09;0.60;;;0.50;;
11837;SDS011;5978;51.020;6.764;2023-03-14T06:40:34;0.83;;;0.50;;
11837;SDS011;5978;51.020;6.764;2023-03-14T06:43:00;3.03;;;0.70;;
11837;SDS011;5978;51.020;6.764;2023-03-14T06:45:26;3.57;;;0.53;;
11837;SDS011;5978;51.020;6.764;2023-03-14T06:47:52;2.50;;;0.60;;
11837;SDS011;5978;51.020;6.764;2023-03-14T06:50:17;0.90;;;0.60;;
11837;SDS011;5978;51.020;6.764;2023-03-14T06:52:43;0.70;;;0.50;;
11837;SDS011;5978;51.020;6.764;2023-03-14T06:55:13;0.70;;;0.60;;
11837;SDS011;5978;51.020;6.764;2023-03-14T06:57:40;0.63;;;0.47;;
11837;SDS011;5978;51.020;6.764;2023-03-14T07:00:07;1.33;;;0.60;;
11837;SDS011;5978;51.020;6.764;2023-03-14T07:02:33;3.17;;;0.60;;
11837;SDS011;5978;51.020;6.764;2023-03-14T07:04:59;6.20;;;0.80;;
11837;SDS011;5978;51.020;6.764;2023-03-14T07:07:26;2.60;;;0.87;;
11837;SDS011;5978;51.020;6.764;2023-03-14T07:09:52;1.20;;;0.70;;
11837;SDS011;5978;51.020;6.764;2023-03-14T07:12:17;2.10;;;1.90;;
11837;SDS011;5978;51.020;6.764;2023-03-14T07:14:43;0.90;;;0.73;;
11837;SDS011;5978;51.020;6.764;2023-03-14T07:17:09;0.90;;;0.60;;
11837;SDS011;5978;51.020;6.764;2023-03-14T07:19:35;0.63;;;0.50;;
11837;SDS011;5978;51.020;6.764;2023-03-14T07:22:00;1.50;;;0.70;;
11837;SDS011;5978;51.020;6.764;2023-03-14T07:24:26;1.37;;;0.50;;
11837;SDS011;5978;51.020;6.764;2023-03-14T07:26:52;0.67;;;0.50;;
11837;SDS011;5978;51.020;6.764;2023-03-14T07:29:17;0.90;;;0.60;;
11837;SDS011;5978;51.020;6.764;2023-03-14T07:31:43;1.30;;;0.60;;
11837;SDS011;5978;51.020;6.764;2023-03-14T07:34:09;0.77;;;0.60;;
11837;SDS011;5978;51.020;6.764;2023-03-14T07:36:35;1.07;;;0.70;;
11837;SDS011;5978;51.020;6.764;2023-03-14T07:39:00;0.90;;;0.60;;
11837;SDS011;5978;51.020;6.764;2023-03-14T07:41:26;1.20;;;0.70;;
11837;SDS011;5978;51.020;6.764;2023-03-14T07:43:52;0.70;;;0.50;;
11837;SDS011;5978;51.020;6.764;2023-03-14T07:46:18;2.33;;;0.60;;
11837;SDS011;5978;51.020;6.764;2023-03-14T07:48:43;0.93;;;0.77;;
11837;SDS011;5978;51.020;6.764;2023-03-14T07:51:09;4.60;;;0.60;;
11837;SDS011;5978;51.020;6.764;2023-03-14T07:53:35;0.90;;;0.73;;
11837;SDS011;5978;51.020;6.764;2023-03-14T07:56:01;4.53;;;0.70;;
11837;SDS011;5978;51.020;6.764;2023-03-14T07:58:26;1.10;;;0.80;;
11837;SDS011;5978;51.020;6.764;2023-03-14T08:00:52;1.00;;;0.70;;
11837;SDS011;5978;51.020;6.764;2023-03-14T08:03:18;2.50;;;0.90;;
11837;SDS011;5978;51.020;6.764;2023-03-14T08:05:46;0.90;;;0.80;;
11837;SDS011;5978;51.020;6.764;2023-03-14T08:08:13;0.90;;;0.83;;
11837;SDS011;5978;51.020;6.764;2023-03-14T08:10:38;1.30;;;1.10;;
11837;SDS011;5978;51.020;6.764;2023-03-14T08:13:04;2.30;;;0.90;;
11837;SDS011;5978;51.020;6.764;2023-03-14T08:15:30;1.00;;;0.90;;
11837;SDS011;5978;51.020;6.764;2023-03-14T08:17:56;3.70;;;1.03;;
11837;SDS011;5978;51.020;6.764;2023-03-14T08:20:26;1.13;;;1.03;;
11837;SDS011;5978;51.020;6.764;2023-03-14T08:22:55;2.53;;;0.90;;
11837;SDS011;5978;51.020;6.764;2023-03-14T08:25:22;0.87;;;0.80;;
11837;SDS011;5978;51.020;6.764;2023-03-14T08:27:48;1.27;;;0.83;;
11837;SDS011;5978;51.020;6.764;2023-03-14T08:30:14;1.10;;;1.00;;
11837;SDS011;5978;51.020;6.764;2023-03-14T08:32:41;0.90;;;0.77;;
11837;SDS011;5978;51.020;6.764;2023-03-14T08:35:07;0.93;;;0.83;;
11837;SDS011;5978;51.020;6.764;2023-03-14T08:37:34;1.10;;;1.00;;
11837;SDS011;5978;51.020;6.764;2023-03-14T08:40:01;1.00;;;0.90;;
11837;SDS011;5978;51.020;6.764;2023-03-14T08:42:31;1.50;;;0.90;;
11837;SDS011;5978;51.020;6.764;2023-03-14T08:44:58;1.70;;;0.90;;
11837;SDS011;5978;51.020;6.764;2023-03-14T08:47:24;1.57;;;1.00;;
11837;SDS011;5978;51.020;6.764;2023-03-14T08:49:50;1.53;;;1.00;;
11837;SDS011;5978;51.020;6.764;2023-03-14T08:52:15;1.00;;;0.90;;
11837;SDS011;5978;51.020;6.764;2023-03-14T08:54:41;1.20;;;1.10;;
11837;SDS011;5978;51.020;6.764;2023-03-14T08:57:10;1.20;;;1.00;;
11837;SDS011;5978;51.020;6.764;2023-03-14T08:59:36;2.20;;;1.40;;
11837;SDS011;5978;51.020;6.764;2023-03-14T09:02:02;2.23;;;0.93;;
11837;SDS011;5978;51.020;6.764;2023-03-14T09:04:31;1.00;;;0.87;;
11837;SDS011;5978;51.020;6.764;2023-03-14T09:06:58;6.73;;;1.00;;
11837;SDS011;5978;51.020;6.764;2023-03-14T09:09:25;2.70;;;1.00;;
11837;SDS011;5978;51.020;6.764;2023-03-14T09:11:55;1.67;;;1.00;;
11837;SDS011;5978;51.020;6.764;2023-03-14T09:14:21;1.77;;;1.00;;
11837;SDS011;5978;51.020;6.764;2023-03-14T09:16:47;1.63;;;1.53;;
11837;SDS011;5978;51.020;6.764;2023-03-14T09:19:13;1.40;;;1.00;;
11837;SDS011;5978;51.020;6.764;2023-03-14T09:21:39;3.77;;;1.10;;
11837;SDS011;5978;51.020;6.764;2023-03-14T09:24:05;1.90;;;0.83;;
11837;SDS011;5978;51.020;6.764;2023-03-14T09:26:30;1.77;;;1.17;;
11837;SDS011;5978;51.020;6.764;2023-03-14T09:28:56;3.03;;;1.50;;
11837;SDS011;5978;51.020;6.764;2023-03-14T09:31:22;1.27;;;1.10;;
11837;SDS011;5978;51.020;6.764;2023-03-14T09:33:47;1.33;;;1.23;;
11837;SDS011;5978;51.020;6.764;2023-03-14T09:36:13;1.10;;;1.00;;
11837;SDS011;5978;51.020;6.764;2023-03-14T09:38:38;1.50;;;1.40;;
11837;SDS011;5978;51.020;6.764;2023-03-14T09:41:26;1.37;;;1.27;;
11837;SDS011;5978;51.020;6.764;2023-03-14T09:44:00;1.30;;;1.20;;
11837;SDS011;5978;51.020;6.764;2023-03-14T09:46:29;1.42;;;1.25;;
11837;SDS011;5978;51.020;6.764;2023-03-14T09:48:58;1.33;;;1.20;;
11837;SDS011;5978;51.020;6.764;2023-03-14T09:51:24;5.80;;;1.25;;
11837;SDS011;5978;51.020;6.764;2023-03-14T09:53:51;1.40;;;1.30;;
11837;SDS011;5978;51.020;6.764;2023-03-14T09:59:01;2.85;;;1.40;;
11837;SDS011;5978;51.020;6.764;2023-03-14T10:01:31;2.00;;;1.90;;
11837;SDS011;5978;51.020;6.764;2023-03-14T10:04:02;11.00;;;4.00;;
11837;SDS011;5978;51.020;6.764;2023-03-14T10:06:35;5.93;;;2.63;;
11837;SDS011;5978;51.020;6.764;2023-03-14T10:09:00;3.50;;;2.50;;
11837;SDS011;5978;51.020;6.764;2023-03-14T10:11:27;2.60;;;2.40;;
11837;SDS011;5978;51.020;6.764;2023-03-14T10:14:09;6.73;;;2.73;;
11837;SDS011;5978;51.020;6.764;2023-03-14T10:16:42;3.00;;;2.70;;
11837;SDS011;5978;51.020;6.764;2023-03-14T10:19:10;4.82;;;2.55;;
11837;SDS011;5978;51.020;6.764;2023-03-14T10:21:42;4.15;;;2.55;;
11837;SDS011;5978;51.020;6.764;2023-03-14T10:24:16;2.97;;;2.67;;
11837;SDS011;5978;51.020;6.764;2023-03-14T10:26:55;4.80;;;2.70;;
11837;SDS011;5978;51.020;6.764;2023-03-14T10:29:26;3.60;;;2.38;;
11837;SDS011;5978;51.020;6.764;2023-03-14T10:32:10;2.10;;;1.90;;
11837;SDS011;5978;51.020;6.764;2023-03-14T10:34:44;2.72;;;2.42;;
11837;SDS011;5978;51.020;6.764;2023-03-14T10:37:24;2.40;;;1.90;;
11837;SDS011;5978;51.020;6.764;2023-03-14T10:39:53;2.63;;;2.00;;
11837;SDS011;5978;51.020;6.764;2023-03-14T10:42:34;4.13;;;1.60;;
11837;SDS011;5978;51.020;6.764;2023-03-14T10:45:19;1.17;;;1.08;;
11837;SDS011;5978;51.020;6.764;2023-03-14T10:53:33;5.97;;;1.75;;
11837;SDS011;5978;51.020;6.764;2023-03-14T10:56:05;1.23;;;1.13;;
11837;SDS011;5978;51.020;6.764;2023-03-14T10:58:33;5.50;;;1.80;;
11837;SDS011;5978;51.020;6.764;2023-03-14T11:04:03;3.70;;;1.35;;
11837;SDS011;5978;51.020;6.764;2023-03-14T11:06:44;1.33;;;1.10;;
11837;SDS011;5978;51.020;6.764;2023-03-14T11:09:33;5.15;;;2.30;;
11837;SDS011;5978;51.020;6.764;2023-03-14T11:12:14;6.30;;;2.15;;
11837;SDS011;5978;51.020;6.764;2023-03-14T11:14:57;4.63;;;1.70;;
11837;SDS011;5978;51.020;6.764;2023-03-14T11:20:21;8.35;;;3.20;;
11837;SDS011;5978;51.020;6.764;2023-03-14T11:22:55;6.70;;;2.00;;
11837;SDS011;5978;51.020;6.764;2023-03-14T11:25:54;3.08;;;2.35;;
11837;SDS011;5978;51.020;6.764;2023-03-14T11:31:25;1.33;;;0.70;;
11837;SDS011;5978;51.020;6.764;2023-03-14T11:36:39;4.05;;;0.82;;
11837;SDS011;5978;51.020;6.764;2023-03-14T11:39:13;1.25;;;0.85;;
11837;SDS011;5978;51.020;6.764;2023-03-14T11:41:42;0.93;;;0.65;;
11837;SDS011;5978;51.020;6.764;2023-03-14T11:46:52;0.90;;;0.75;;
11837;SDS011;5978;51.020;6.764;2023-03-14T11:52:05;4.65;;;1.60;;
11837;SDS011;5978;51.020;6.764;2023-03-14T11:54:49;5.43;;;1.85;;
11837;SDS011;5978;51.020;6.764;2023-03-14T11:57:20;5.65;;;2.40;;
11837;SDS011;5978;51.020;6.764;2023-03-14T12:05:19;1.60;;;1.50;;
11837;SDS011;5978;51.020;6.764;2023-03-14T12:08:03;2.38;;;1.50;;
11837;SDS011;5978;51.020;6.764;2023-03-14T12:10:51;3.75;;;1.60;;
11837;SDS011;5978;51.020;6.764;2023-03-14T12:13:38;2.05;;;1.50;;
11837;SDS011;5978;51.020;6.764;2023-03-14T12:16:19;4.22;;;1.60;;
11837;SDS011;5978;51.020;6.764;2023-03-14T12:18:49;2.55;;;1.38;;
11837;SDS011;5978;51.020;6.764;2023-03-14T12:21:16;1.38;;;1.20;;
11837;SDS011;5978;51.020;6.764;2023-03-14T12:23:49;15.53;;;1.83;;
11837;SDS011;5978;51.020;6.764;2023-03-14T12:26:50;4.55;;;1.50;;
11837;SDS011;5978;51.020;6.764;2023-03-14T12:29:18;7.47;;;1.42;;
11837;SDS011;5978;51.020;6.764;2023-03-14T12:31:45;5.23;;;1.03;;
11837;SDS011;5978;51.020;6.764;2023-03-14T12:42:11;3.60;;;1.38;;
11837;SDS011;5978;51.020;6.764;2023-03-14T12:48:07;2.17;;;1.10;;
11837;SDS011;5978;51.020;6.764;2023-03-14T12:50:37;1.40;;;1.30;;
11837;SDS011;5978;51.020;6.764;2023-03-14T12:54:12;6.18;;;1.20;;
11837;SDS011;5978;51.020;6.764;2023-03-14T12:56:09;4.40;;;1.33;;
11837;SDS011;5978;51.020;6.764;2023-03-14T12:59:02;2.28;;;1.35;;
11837;SDS011;5978;51.020;6.764;2023-03-14T13:01:53;1.52;;;1.17;;
11837;SDS011;5978;51.020;6.764;2023-03-14T13:04:26;1.95;;;1.40;;
11837;SDS011;5978;51.020;6.764;2023-03-14T13:06:57;2.17;;;1.45;;
11837;SDS011;5978;51.020;6.764;2023-03-14T13:12:22;3.10;;;0.97;;
11837;SDS011;5978;51.020;6.764;2023-03-14T13:14:49;16.17;;;2.17;;
11837;SDS011;5978;51.020;6.764;2023-03-14T13:17:22;9.63;;;1.27;;
11837;SDS011;5978;51.020;6.764;2023-03-14T13:19:52;6.30;;;2.17;;
11837;SDS011;5978;51.020;6.764;2023-03-14T13:22:27;4.43;;;2.30;;
11837;SDS011;5978;51.020;6.764;2023-03-14T13:25:13;2.47;;;1.33;;
11837;SDS011;5978;51.020;6.764;2023-03-14T13:27:38;5.20;;;1.25;;
11837;SDS011;5978;51.020;6.764;2023-03-14T13:32:41;5.03;;;2.58;;
11837;SDS011;5978;51.020;6.764;2023-03-14T13:37:46;7.28;;;2.28;;
11837;SDS011;5978;51.020;6.764;2023-03-14T13:40:34;9.43;;;5.50;;
11837;SDS011;5978;51.020;6.764;2023-03-14T13:43:11;11.65;;;2.05;;
11837;SDS011;5978;51.020;6.764;2023-03-14T13:45:55;6.15;;;2.40;;
11837;SDS011;5978;51.020;6.764;2023-03-14T13:48:22;10.95;;;2.35;;
11837;SDS011;5978;51.020;6.764;2023-03-14T13:50:53;7.45;;;2.22;;
11837;SDS011;5978;51.020;6.764;2023-03-14T13:53:27;6.95;;;2.10;;
11837;SDS011;5978;51.020;6.764;2023-03-14T13:55:53;10.38;;;2.17;;
11837;SDS011;5978;51.020;6.764;2023-03-14T13:58:20;15.33;;;2.77;;
11837;SDS011;5978;51.020;6.764;2023-03-14T14:00:54;8.40;;;2.75;;
11837;SDS011;5978;51.020;6.764;2023-03-14T14:03:23;10.93;;;3.60;;
11837;SDS011;5978;51.020;6.764;2023-03-14T14:05:49;14.35;;;2.55;;
11837;SDS011;5978;51.020;6.764;2023-03-14T14:08:15;4.57;;;1.93;;
11837;SDS011;5978;51.020;6.764;2023-03-14T14:10:41;10.70;;;2.67;;
11837;SDS011;5978;51.020;6.764;2023-03-14T14:13:08;15.50;;;3.50;;
11837;SDS011;5978;51.020;6.764;2023-03-14T14:15:41;8.02;;;3.05;;
11837;SDS011;5978;51.020;6.764;2023-03-14T14:18:12;8.20;;;1.92;;
11837;SDS011;5978;51.020;6.764;2023-03-14T14:20:42;7.00;;;2.17;;
11837;SDS011;5978;51.020;6.764;2023-03-14T14:23:10;6.20;;;2.22;;
11837;SDS011;5978;51.020;6.764;2023-03-14T14:25:38;11.65;;;3.50;;
11837;SDS011;5978;51.020;6.764;2023-03-14T14:36:24;12.60;;;2.53;;
11837;SDS011;5978;51.020;6.764;2023-03-14T14:38:51;5.63;;;3.10;;
11837;SDS011;5978;51.020;6.764;2023-03-14T14:41:18;18.95;;;3.38;;
11837;SDS011;5978;51.020;6.764;2023-03-14T14:43:44;8.13;;;2.22;;
11837;SDS011;5978;51.020;6.764;2023-03-14T14:46:13;14.40;;;3.20;;
11837;SDS011;5978;51.020;6.764;2023-03-14T14:48:42;10.40;;;2.28;;
11837;SDS011;5978;51.020;6.764;2023-03-14T14:51:08;9.60;;;2.60;;
11837;SDS011;5978;51.020;6.764;2023-03-14T14:56:13;9.63;;;2.50;;
11837;SDS011;5978;51.020;6.764;2023-03-14T14:58:47;14.65;;;2.42;;
11837;SDS011;5978;51.020;6.764;2023-03-14T15:01:17;17.67;;;3.20;;
11837;SDS011;5978;51.020;6.764;2023-03-14T15:03:47;11.43;;;2.13;;
11837;SDS011;5978;51.020;6.764;2023-03-14T15:06:16;8.15;;;2.20;;
11837;SDS011;5978;51.020;6.764;2023-03-14T15:08:43;13.57;;;3.25;;
11837;SDS011;5978;51.020;6.764;2023-03-14T15:11:18;12.23;;;2.83;;
11837;SDS011;5978;51.020;6.764;2023-03-14T15:13:45;17.75;;;4.10;;
11837;SDS011;5978;51.020;6.764;2023-03-14T15:16:11;8.30;;;3.10;;
11837;SDS011;5978;51.020;6.764;2023-03-14T15:18:39;9.55;;;3.50;;
11837;SDS011;5978;51.020;6.764;2023-03-14T15:21:05;11.23;;;2.78;;
11837;SDS011;5978;51.020;6.764;2023-03-14T15:23:31;12.93;;;3.20;;
11837;SDS011;5978;51.020;6.764;2023-03-14T15:25:56;11.37;;;2.83;;
11837;SDS011;5978;51.020;6.764;2023-03-14T15:28:23;6.40;;;2.73;;
11837;SDS011;5978;51.020;6.764;2023-03-14T15:30:51;14.05;;;2.90;;
11837;SDS011;5978;51.020;6.764;2023-03-14T15:33:20;9.95;;;2.60;;
11837;SDS011;5978;51.020;6.764;2023-03-14T15:35:46;10.02;;;2.85;;
11837;SDS011;5978;51.020;6.764;2023-03-14T15:38:14;7.75;;;2.75;;
11837;SDS011;5978;51.020;6.764;2023-03-14T15:40:42;10.20;;;2.72;;
11837;SDS011;5978;51.020;6.764;2023-03-14T15:43:08;10.53;;;2.50;;
11837;SDS011;5978;51.020;6.764;2023-03-14T15:45:34;10.13;;;3.03;;
11837;SDS011;5978;51.020;6.764;2023-03-14T15:48:00;9.50;;;2.85;;
11837;SDS011;5978;51.020;6.764;2023-03-14T15:50:26;5.70;;;2.03;;
11837;SDS011;5978;51.020;6.764;2023-03-14T15:52:53;8.25;;;3.03;;
11837;SDS011;5978;51.020;6.764;2023-03-14T15:55:19;13.80;;;3.50;;
11837;SDS011;5978;51.020;6.764;2023-03-14T15:57:45;3.03;;;2.23;;
11837;SDS011;5978;51.020;6.764;2023-03-14T16:00:12;8.10;;;2.03;;
11837;SDS011;5978;51.020;6.764;2023-03-14T16:02:43;4.15;;;1.90;;
11837;SDS011;5978;51.020;6.764;2023-03-14T16:05:10;6.00;;;1.75;;
11837;SDS011;5978;51.020;6.764;2023-03-14T16:07:37;4.05;;;1.65;;
11837;SDS011;5978;51.020;6.764;2023-03-14T16:10:04;9.10;;;2.25;;
11837;SDS011;5978;51.020;6.764;2023-03-14T16:12:32;3.28;;;1.50;;
11837;SDS011;5978;51.020;6.764;2023-03-14T16:14:58;5.63;;;2.63;;
11837;SDS011;5978;51.020;6.764;2023-03-14T16:17:24;5.03;;;2.20;;